Time;durP1;ratioP1;P1;durP2;ratioP2;P2;SDS_P1;SDS_P2;PMS_P1;PMS_P2;Temp;Humidity;BMP_temperature;BMP_pressure;BME280_temperature;BME280_humidity;BME280_pressure;Samples;Min_cycle;Max_cycle;Signal;HPM_P1;HPM_P2
2022/12/11 00:00:37;;;;;;;46.95;27.42;;;;;;;-0.91;60.69;99434.47;10427550;28;20053;-60
2022/12/11 00:05:41;;;;;;;49.55;27.60;;;;;;;-0.88;60.54;99431.00;10436062;28;20055;-60
2022/12/11 00:10:49;;;;;;;47.38;28.65;;;;;;;-0.96;60.95;99443.16;10425826;28;20044;-60
2022/12/11 00:15:50;;;;;;;48.00;27.35;;;;;;;-0.83;61.10;99431.72;10428442;28;20409;-60
2022/12/11 00:20:52;;;;;;;45.05;26.08;;;;;;;-0.78;61.09;99438.44;10428963;28;20049;-61
2022/12/11 00:25:54;;;;;;;49.00;28.05;;;;;;;-0.72;60.65;99437.47;10426922;28;20048;-60
2022/12/11 00:30:55;;;;;;;44.60;26.00;;;;;;;-0.85;60.59;99439.47;10424149;28;20057;-61
2022/12/11 00:35:57;;;;;;;45.88;28.00;;;;;;;-0.69;60.60;99437.38;10431024;28;20053;-60
2022/12/11 00:40:59;;;;;;;45.10;27.08;;;;;;;-0.88;60.74;99436.94;10427187;28;20057;-60
2022/12/11 00:46:01;;;;;;;47.97;27.70;;;;;;;-0.81;60.93;99429.97;10425729;28;20049;-60
2022/12/11 00:51:03;;;;;;;48.95;28.13;;;;;;;-0.68;60.59;99428.81;10424505;28;20052;-60
2022/12/11 00:56:09;;;;;;;46.55;27.92;;;;;;;-0.56;60.76;99433.69;10426205;28;20669;-60
2022/12/11 01:01:14;;;;;;;49.20;28.55;;;;;;;-0.48;60.99;99437.78;10443172;28;20564;-61
2022/12/11 01:06:19;;;;;;;47.58;27.42;;;;;;;-0.50;61.04;99436.09;10426645;28;20048;-61
2022/12/11 01:11:21;;;;;;;47.47;27.20;;;;;;;-0.63;61.16;99437.25;10424921;28;20056;-61
2022/12/11 01:16:23;;;;;;;49.13;27.83;;;;;;;-0.61;61.07;99438.06;10427080;28;20049;-61
2022/12/11 01:21:24;;;;;;;47.50;27.65;;;;;;;-0.56;61.24;99441.38;10431654;28;20504;-61
2022/12/11 01:26:26;;;;;;;46.33;27.15;;;;;;;-0.73;61.28;99428.91;10433138;28;20124;-60
2022/12/11 01:31:28;;;;;;;49.72;29.38;;;;;;;-0.70;61.38;99423.72;10434504;28;20052;-60
2022/12/11 01:36:30;;;;;;;49.33;28.20;;;;;;;-0.57;61.25;99420.00;10435308;28;20041;-60
2022/12/11 01:41:31;;;;;;;49.97;28.88;;;;;;;-0.49;61.12;99415.53;10436333;28;20052;-61
2022/12/11 01:46:35;;;;;;;52.92;28.95;;;;;;;-0.59;61.14;99416.63;10428520;28;20068;-62
2022/12/11 01:52:00;;;;;;;54.45;30.02;;;;;;;-0.58;61.17;99415.75;10433098;28;20041;-60
2022/12/11 01:57:05;;;;;;;48.88;28.40;;;;;;;-0.57;61.15;99424.28;10434049;28;20061;-60
2022/12/11 02:02:21;;;;;;;51.20;28.65;;;;;;;-0.62;61.25;99423.56;10433680;28;20064;-60
2022/12/11 02:07:23;;;;;;;52.28;29.77;;;;;;;-0.54;61.42;99416.50;10446482;28;20060;-61
2022/12/11 02:12:46;;;;;;;49.22;29.17;;;;;;;-0.58;61.80;99420.88;10432277;28;20049;-60
2022/12/11 02:18:13;;;;;;;54.15;31.02;;;;;;;-0.61;61.47;99415.81;10431055;28;20425;-60
2022/12/11 02:23:31;;;;;;;51.63;29.80;;;;;;;-0.56;61.72;99416.56;10434029;28;20053;-60
2022/12/11 02:29:08;;;;;;;51.90;30.40;;;;;;;-0.39;61.64;99422.13;10433859;28;20060;-61
2022/12/11 02:34:38;;;;;;;56.40;30.33;;;;;;;-0.26;61.80;99421.81;10429404;28;20064;-61
2022/12/11 02:39:43;;;;;;;51.17;29.45;;;;;;;-0.27;61.62;99430.44;10429875;28;20043;-61
2022/12/11 02:44:47;;;;;;;54.13;30.50;;;;;;;-0.33;61.85;99424.53;10431642;28;20053;-60
2022/12/11 02:49:50;;;;;;;56.58;32.05;;;;;;;-0.49;61.75;99424.94;10432453;28;20053;-61
2022/12/11 02:54:56;;;;;;;54.17;29.98;;;;;;;-0.64;62.27;99415.88;10440331;28;20048;-60
2022/12/11 02:59:58;;;;;;;52.25;29.13;;;;;;;-0.48;62.21;99412.09;10429254;28;21004;-61
2022/12/11 03:05:00;;;;;;;52.05;30.02;;;;;;;-0.45;62.16;99409.44;10467369;28;20052;-60
2022/12/11 03:10:05;;;;;;;51.95;29.65;;;;;;;-0.45;61.82;99401.72;10443071;28;20064;-60
2022/12/11 03:15:12;;;;;;;49.30;29.23;;;;;;;-0.48;61.94;99406.09;10435888;28;20048;-60
2022/12/11 03:20:50;;;;;;;50.35;29.83;;;;;;;-0.42;62.13;99411.94;10438698;28;20061;-60
2022/12/11 03:25:58;;;;;;;53.63;31.02;;;;;;;-0.33;62.03;99411.69;10435069;28;20053;-60
2022/12/11 03:31:06;;;;;;;57.28;31.00;;;;;;;-0.24;62.04;99404.66;10437969;28;20057;-60
2022/12/11 03:36:19;;;;;;;56.53;31.25;;;;;;;-0.18;62.26;99405.34;10439121;28;20049;-61
2022/12/11 03:41:24;;;;;;;54.15;29.98;;;;;;;-0.03;61.94;99398.97;10438317;28;20603;-60
2022/12/11 03:46:32;;;;;;;53.00;30.85;;;;;;;-0.03;62.09;99401.56;10447507;28;20049;-60
2022/12/11 03:51:35;;;;;;;51.90;30.10;;;;;;;0.01;61.86;99404.03;10445552;28;20154;-60
2022/12/11 03:56:38;;;;;;;51.03;30.10;;;;;;;-0.10;61.99;99403.44;10458821;28;20061;-60
2022/12/11 04:01:40;;;;;;;50.05;30.27;;;;;;;-0.09;62.25;99396.56;10434337;28;20049;-60
2022/12/11 04:06:42;;;;;;;51.45;29.65;;;;;;;-0.02;62.28;99398.94;10461807;28;20102;-60
2022/12/11 04:11:43;;;;;;;51.70;30.90;;;;;;;-0.03;62.60;99401.56;10430018;28;20048;-60
2022/12/11 04:16:45;;;;;;;46.33;28.08;;;;;;;-0.04;62.49;99405.84;10432833;28;20056;-60
2022/12/11 04:27:07;;;;;;;48.72;28.95;;;;;;;-0.12;62.80;99400.06;10435482;28;20415;-60
2022/12/11 04:32:09;;;;;;;44.55;27.45;;;;;;;-0.15;62.91;99394.16;10426719;28;20052;-60
2022/12/11 04:37:10;;;;;;;48.00;28.17;;;;;;;-0.13;62.83;99392.38;10432271;28;20041;-60
2022/12/11 04:42:12;;;;;;;47.28;27.85;;;;;;;-0.12;62.99;99388.91;10425654;28;20056;-61
2022/12/11 04:47:14;;;;;;;43.97;26.85;;;;;;;-0.11;62.98;99385.50;10427811;28;20472;-60
2022/12/11 04:52:17;;;;;;;47.35;27.73;;;;;;;-0.05;62.99;99390.47;10428968;28;20159;-61
2022/12/11 04:57:20;;;;;;;47.78;27.65;;;;;;;0.03;62.75;99391.97;10435692;28;20049;-60
2022/12/11 05:02:22;;;;;;;47.40;27.55;;;;;;;-0.00;62.88;99383.47;10433999;28;20053;-61
2022/12/11 05:07:23;;;;;;;43.97;26.25;;;;;;;-0.05;62.71;99385.34;10435010;28;20469;-60
2022/12/11 05:12:25;;;;;;;45.72;27.38;;;;;;;-0.08;62.73;99375.09;10434323;28;20041;-60
2022/12/11 05:17:26;;;;;;;43.50;26.85;;;;;;;-0.19;62.94;99382.25;10433658;28;20053;-61
2022/12/11 05:22:30;;;;;;;45.80;27.35;;;;;;;-0.18;62.86;99371.94;10433688;28;20055;-60
2022/12/11 05:27:32;;;;;;;45.72;26.80;;;;;;;-0.05;63.10;99383.59;10437852;28;20408;-60
2022/12/11 05:32:34;;;;;;;43.83;26.85;;;;;;;-0.00;62.90;99375.75;10443785;28;20092;-61
2022/12/11 05:37:36;;;;;;;46.20;27.08;;;;;;;-0.08;62.79;99364.84;10434710;28;20052;-61
2022/12/11 05:42:38;;;;;;;44.53;27.45;;;;;;;-0.08;62.93;99369.97;10432351;28;20049;-61
2022/12/11 05:47:39;;;;;;;46.35;26.75;;;;;;;-0.17;63.06;99368.50;10435420;28;20060;-61
2022/12/11 05:52:41;;;;;;;47.97;28.30;;;;;;;-0.17;62.92;99371.06;10443605;28;20064;-61
2022/12/11 05:57:43;;;;;;;45.83;27.58;;;;;;;-0.21;63.20;99364.31;10433278;28;20860;-60
2022/12/11 06:02:45;;;;;;;41.35;26.08;;;;;;;-0.12;63.29;99358.94;10436483;28;20084;-60
2022/12/11 06:07:46;;;;;;;43.75;26.50;;;;;;;-0.06;62.87;99345.06;10432089;28;20110;-61
2022/12/11 06:12:48;;;;;;;50.17;27.73;;;;;;;-0.00;62.89;99350.06;10433832;28;20091;-60
2022/12/11 06:17:50;;;;;;;45.70;27.98;;;;;;;0.05;62.78;99350.78;10431767;28;20060;-60
2022/12/11 06:22:51;;;;;;;49.60;29.55;;;;;;;0.16;62.57;99349.59;10431930;28;20413;-60
2022/12/11 06:27:53;;;;;;;45.08;27.75;;;;;;;0.15;62.44;99352.22;10448405;28;20053;-60
2022/12/11 06:32:57;;;;;;;47.95;29.70;;;;;;;0.13;62.47;99348.84;10433545;28;20077;-60
2022/12/11 06:37:59;;;;;;;46.75;28.92;;;;;;;0.12;62.58;99344.59;10436382;28;20048;-60
2022/12/11 06:43:01;;;;;;;51.55;29.13;;;;;;;0.13;62.46;99354.00;10430202;28;20057;-60
2022/12/11 06:48:03;;;;;;;47.47;29.60;;;;;;;0.13;62.53;99346.28;10431770;28;20053;-61
2022/12/11 06:53:05;;;;;;;50.00;29.30;;;;;;;0.11;62.65;99356.63;10430717;28;20421;-61
2022/12/11 06:58:07;;;;;;;49.40;28.63;;;;;;;0.15;62.57;99359.94;10430509;28;20135;-62
2022/12/11 07:03:09;;;;;;;45.25;28.30;;;;;;;0.16;62.48;99354.75;10444017;28;20056;-61
2022/12/11 07:08:11;;;;;;;47.30;28.90;;;;;;;0.19;62.63;99361.53;10434958;28;20059;-60
2022/12/11 07:13:15;;;;;;;48.95;29.00;;;;;;;0.15;62.72;99357.38;10429623;28;20057;-61
2022/12/11 07:18:17;;;;;;;50.70;29.77;;;;;;;0.12;62.71;99360.84;10429545;28;20052;-59
2022/12/11 07:23:19;;;;;;;50.22;29.85;;;;;;;0.06;62.70;99353.31;10439976;28;20053;-61
2022/12/11 07:28:21;;;;;;;53.65;31.58;;;;;;;0.05;62.98;99358.50;10427635;28;20497;-61
2022/12/11 07:33:23;;;;;;;54.53;30.55;;;;;;;0.11;63.05;99359.19;10428328;28;20059;-60
2022/12/11 07:38:24;;;;;;;50.65;29.30;;;;;;;0.06;63.11;99360.16;10426995;28;20068;-60
2022/12/11 07:43:26;;;;;;;58.97;32.85;;;;;;;0.09;63.42;99353.25;10428460;28;20135;-59
2022/12/11 07:48:34;;;;;;;69.00;37.53;;;;;;;0.16;63.76;99351.34;10438416;28;20052;-59
2022/12/11 07:53:36;;;;;;;58.92;32.45;;;;;;;0.24;63.08;99357.94;10430058;28;20044;-59
2022/12/11 07:58:38;;;;;;;57.58;31.48;;;;;;;0.30;63.02;99359.53;10426787;28;20041;-59
2022/12/11 08:03:39;;;;;;;51.25;29.88;;;;;;;0.34;63.08;99371.44;10428179;28;20045;-59
2022/12/11 08:08:41;;;;;;;58.03;32.60;;;;;;;0.34;63.37;99374.00;10432047;28;20049;-60
2022/12/11 08:13:43;;;;;;;61.45;32.90;;;;;;;0.25;63.43;99369.09;10426947;28;20053;-59
2022/12/11 08:18:47;;;;;;;59.75;33.28;;;;;;;0.35;63.42;99375.66;10427754;28;20045;-59
2022/12/11 08:23:50;;;;;;;69.93;38.55;;;;;;;0.42;63.03;99372.06;10427977;28;20057;-60
2022/12/11 08:28:52;;;;;;;56.47;31.77;;;;;;;0.43;63.09;99379.72;10427055;28;20057;-60
2022/12/11 08:33:55;;;;;;;54.80;30.25;;;;;;;0.46;62.93;99374.47;10425849;28;20525;-59
2022/12/11 08:38:57;;;;;;;59.85;33.13;;;;;;;0.43;63.35;99381.44;10427616;28;20064;-60
2022/12/11 08:44:00;;;;;;;60.00;32.47;;;;;;;0.35;63.19;99381.66;10427123;28;20056;-59
2022/12/11 08:49:02;;;;;;;52.40;30.50;;;;;;;0.51;62.94;99382.06;10424897;28;20057;-59
2022/12/11 08:54:04;;;;;;;56.45;32.28;;;;;;;0.48;63.06;99384.75;10426895;28;20048;-59
2022/12/11 08:59:05;;;;;;;54.72;30.90;;;;;;;0.67;62.83;99378.19;10434748;28;20056;-59
2022/12/11 09:04:07;;;;;;;57.83;32.63;;;;;;;0.68;62.60;99379.03;10426993;28;20524;-59
2022/12/11 09:09:08;;;;;;;59.00;34.00;;;;;;;0.74;62.65;99368.56;10466012;28;20052;-59
2022/12/11 09:14:10;;;;;;;56.25;31.90;;;;;;;0.76;62.38;99369.34;10425920;28;20056;-59
2022/12/11 09:19:13;;;;;;;52.20;31.30;;;;;;;0.74;62.27;99369.41;10434311;28;20045;-60
2022/12/11 09:24:16;;;;;;;52.22;30.05;;;;;;;0.90;62.24;99365.50;10426066;28;20274;-60
2022/12/11 09:29:17;;;;;;;51.50;28.73;;;;;;;0.97;61.80;99366.97;10438045;28;20064;-60
2022/12/11 09:34:19;;;;;;;48.25;27.75;;;;;;;0.91;61.64;99372.31;10430980;28;20056;-60
2022/12/11 09:39:29;;;;;;;53.45;30.63;;;;;;;0.84;62.14;99372.53;10427098;28;20124;-59
2022/12/11 09:44:52;;;;;;;60.33;32.35;;;;;;;0.91;62.04;99372.31;10431233;28;20087;-60
2022/12/11 09:50:09;;;;;;;52.45;29.98;;;;;;;0.92;61.68;99357.72;10436856;28;20140;-60
2022/12/11 09:55:17;;;;;;;49.67;27.55;;;;;;;0.88;62.08;99359.56;10430688;28;20134;-60
2022/12/11 10:00:30;;;;;;;54.38;33.28;;;;;;;0.98;61.80;99355.81;10431234;28;20060;-60
2022/12/11 10:05:37;;;;;;;61.53;33.60;;;;;;;0.99;61.91;99349.75;10434866;28;20045;-59
2022/12/11 10:10:43;;;;;;;44.25;27.08;;;;;;;1.15;61.41;99348.44;10429754;28;20055;-60
2022/12/11 10:16:02;;;;;;;50.50;29.73;;;;;;;1.23;61.19;99337.88;10427845;28;20489;-59
2022/12/11 10:21:05;;;;;;;56.95;32.88;;;;;;;1.15;61.22;99334.69;10442793;28;20053;-60
2022/12/11 10:26:18;;;;;;;45.92;26.38;;;;;;;1.13;61.36;99339.91;10432230;28;20497;-59
2022/12/11 10:31:40;;;;;;;40.22;25.30;;;;;;;1.14;61.28;99335.56;10432474;28;20959;-59
2022/12/11 10:36:42;;;;;;;46.70;26.10;;;;;;;1.19;61.38;99331.97;10431054;28;20049;-60
2022/12/11 10:41:47;;;;;;;45.78;26.63;;;;;;;1.25;61.08;99334.38;10423087;28;20478;-66
2022/12/11 10:47:14;;;;;;;46.13;25.65;;;;;;;1.10;60.42;99318.53;10429702;28;20489;-65
2022/12/11 10:52:24;;;;;;;45.28;26.35;;;;;;;1.28;60.71;99318.78;10427845;28;20052;-64
2022/12/11 10:57:33;;;;;;;42.00;24.38;;;;;;;1.29;60.69;99317.91;10432343;28;20049;-64
2022/12/11 11:02:37;;;;;;;50.25;26.90;;;;;;;1.33;60.86;99314.34;10427770;28;20563;-65
2022/12/11 11:07:39;;;;;;;39.95;24.17;;;;;;;1.33;60.81;99314.34;10433534;28;20128;-65
2022/12/11 11:12:41;;;;;;;42.58;25.10;;;;;;;1.36;60.95;99319.41;10425715;28;20071;-65
2022/12/11 11:17:50;;;;;;;43.13;25.58;;;;;;;1.44;60.70;99318.31;10428169;28;20754;-65
2022/12/11 11:23:00;;;;;;;42.25;24.63;;;;;;;1.41;60.42;99318.41;10430881;28;20103;-66
2022/12/11 11:28:06;;;;;;;46.45;25.27;;;;;;;1.28;60.79;99305.91;10437187;28;20497;-66
2022/12/11 11:33:16;;;;;;;40.30;24.15;;;;;;;1.35;60.32;99298.84;10428917;28;20049;-66
2022/12/11 11:38:21;;;;;;;42.60;23.27;;;;;;;1.52;60.55;99301.72;10428639;28;20267;-66
2022/12/11 11:43:49;;;;;;;41.58;23.17;;;;;;;1.38;60.04;99291.84;10426625;28;20416;-65
2022/12/11 11:49:03;;;;;;;42.08;23.38;;;;;;;1.23;60.16;99284.63;10425697;28;20713;-66
2022/12/11 11:54:33;;;;;;;41.03;23.58;;;;;;;1.26;59.67;99279.38;10427096;28;20056;-66
2022/12/11 11:59:57;;;;;;;45.55;24.40;;;;;;;1.27;60.17;99281.06;10421777;28;20053;-66
2022/12/11 12:04:59;;;;;;;39.78;23.00;;;;;;;1.25;60.14;99274.28;10427591;28;20053;-65
2022/12/11 12:10:20;;;;;;;42.53;24.77;;;;;;;1.18;59.87;99271.06;10437372;28;20562;-66
2022/12/11 12:15:45;;;;;;;41.17;24.38;;;;;;;1.25;59.87;99269.97;10422232;28;20489;-66
2022/12/11 12:20:52;;;;;;;47.25;23.65;;;;;;;1.11;60.10;99264.44;10425095;28;20045;-66
2022/12/11 12:26:05;;;;;;;42.55;24.40;;;;;;;1.21;60.63;99258.09;10427215;28;20049;-66
2022/12/11 12:31:21;;;;;;;41.22;24.98;;;;;;;1.38;60.03;99252.34;10428539;28;20140;-66
2022/12/11 12:36:41;;;;;;;41.92;23.45;;;;;;;1.43;59.82;99252.22;10461721;28;20133;-66
2022/12/11 12:41:56;;;;;;;41.42;23.85;;;;;;;1.44;59.65;99247.03;10438136;28;20045;-66
2022/12/11 12:47:13;;;;;;;40.85;23.88;;;;;;;1.47;59.42;99243.47;10426004;28;20483;-66
2022/12/11 12:52:32;;;;;;;38.78;22.83;;;;;;;1.57;59.57;99250.00;10424298;28;20051;-66
2022/12/11 12:57:35;;;;;;;37.97;22.35;;;;;;;1.67;60.10;99241.06;10432268;28;20052;-66
2022/12/11 13:02:48;;;;;;;41.05;22.85;;;;;;;1.61;59.23;99246.44;10423054;28;20697;-65
2022/12/11 13:07:54;;;;;;;38.70;23.13;;;;;;;1.33;59.65;99243.97;10435298;28;20904;-66
2022/12/11 13:12:57;;;;;;;41.15;23.70;;;;;;;1.42;59.46;99251.34;10425912;28;20131;-66
2022/12/11 13:18:00;;;;;;;45.33;25.20;;;;;;;1.44;59.87;99247.03;10437211;28;20098;-66
2022/12/11 13:23:05;;;;;;;44.70;25.33;;;;;;;1.49;60.06;99255.44;10433407;28;20048;-66
2022/12/11 13:28:30;;;;;;;44.97;25.27;;;;;;;1.66;59.87;99257.44;10431191;28;20049;-66
2022/12/11 13:33:37;;;;;;;46.35;25.42;;;;;;;1.48;59.42;99258.06;10432592;28;20056;-66
2022/12/11 13:38:47;;;;;;;45.13;25.63;;;;;;;1.52;59.59;99262.22;10432533;28;20662;-66
2022/12/11 13:43:51;;;;;;;44.63;24.67;;;;;;;1.57;59.74;99258.59;10443238;28;20595;-66
2022/12/11 13:48:59;;;;;;;40.20;23.73;;;;;;;1.63;59.74;99260.94;10432780;28;20049;-65
2022/12/11 13:54:16;;;;;;;44.42;25.15;;;;;;;1.58;59.64;99268.00;10426820;28;20729;-65
2022/12/11 13:59:30;;;;;;;42.03;23.58;;;;;;;1.47;59.38;99258.94;10429397;28;20060;-66
2022/12/11 14:04:33;;;;;;;46.40;26.35;;;;;;;1.40;59.95;99276.34;10434729;28;20045;-66
2022/12/11 14:09:42;;;;;;;43.00;25.30;;;;;;;1.45;60.38;99263.31;10437679;28;20275;-66
2022/12/11 14:14:50;;;;;;;48.22;27.33;;;;;;;1.55;60.14;99267.25;10427703;28;20045;-65
2022/12/11 14:19:54;;;;;;;44.72;25.63;;;;;;;1.63;59.81;99260.09;10430014;28;20059;-65
2022/12/11 14:25:01;;;;;;;45.72;26.30;;;;;;;1.52;59.68;99268.22;10428213;28;20497;-66
2022/12/11 14:30:11;;;;;;;41.67;24.83;;;;;;;1.48;59.59;99266.63;10429415;28;20060;-66
2022/12/11 14:35:31;;;;;;;47.05;26.05;;;;;;;1.48;59.80;99270.94;10430501;28;20080;-66
2022/12/11 14:40:43;;;;;;;43.03;25.20;;;;;;;1.50;59.98;99274.31;10439299;28;20501;-65
2022/12/11 14:45:48;;;;;;;39.13;23.48;;;;;;;1.53;59.96;99285.34;10429473;28;20045;-66
2022/12/11 14:50:57;;;;;;;47.63;25.80;;;;;;;1.51;60.13;99289.72;10429194;28;20569;-66
2022/12/11 14:56:03;;;;;;;39.05;23.83;;;;;;;1.52;59.71;99287.97;10428849;28;20049;-67
2022/12/11 15:01:19;;;;;;;41.15;24.05;;;;;;;1.51;59.90;99299.16;10429668;28;20084;-66
2022/12/11 15:06:29;;;;;;;45.47;25.02;;;;;;;1.57;60.16;99288.66;10426996;28;20135;-66
2022/12/11 15:11:31;;;;;;;42.67;24.08;;;;;;;1.64;60.00;99290.16;10429978;28;20048;-66
2022/12/11 15:16:37;;;;;;;42.53;24.55;;;;;;;1.58;60.19;99295.50;10428739;28;20056;-66
2022/12/11 15:21:38;;;;;;;46.97;25.45;;;;;;;1.47;60.37;99293.28;10428552;28;20056;-65
2022/12/11 15:26:44;;;;;;;42.65;25.33;;;;;;;1.47;60.53;99297.59;10430248;28;20053;-66
2022/12/11 15:31:57;;;;;;;44.60;25.83;;;;;;;1.43;60.57;99301.16;10429379;28;20677;-66
2022/12/11 15:36:58;;;;;;;42.25;25.10;;;;;;;1.35;60.81;99306.56;10429768;28;20049;-66
2022/12/11 15:42:00;;;;;;;47.30;25.63;;;;;;;1.33;60.72;99310.94;10447462;28;20555;-66
2022/12/11 15:47:14;;;;;;;41.97;24.85;;;;;;;1.15;60.75;99307.22;10440164;28;20067;-66
2022/12/11 15:52:17;;;;;;;44.10;25.75;;;;;;;1.12;60.69;99307.31;10436845;28;20063;-66
2022/12/11 15:57:22;;;;;;;44.85;25.83;;;;;;;1.05;60.95;99307.56;10429399;28;20041;-66
2022/12/11 16:02:26;;;;;;;43.97;25.48;;;;;;;1.04;60.85;99298.97;10470041;28;20524;-66
2022/12/11 16:07:28;;;;;;;46.15;25.95;;;;;;;1.00;61.02;99310.25;10427494;28;20487;-66
2022/12/11 16:12:30;;;;;;;48.50;26.88;;;;;;;0.95;61.01;99306.97;10430017;28;20045;-65
2022/12/11 16:17:32;;;;;;;48.78;26.75;;;;;;;0.85;61.38;99304.75;10426649;28;20048;-65
2022/12/11 16:22:33;;;;;;;44.40;25.10;;;;;;;0.71;61.57;99307.72;10421744;28;20045;-65
2022/12/11 16:27:35;;;;;;;48.58;27.48;;;;;;;0.64;61.77;99310.53;10426959;28;20060;-67
2022/12/11 16:32:37;;;;;;;48.30;26.08;;;;;;;0.71;61.81;99312.06;10456579;28;20052;-66
2022/12/11 16:37:38;;;;;;;47.20;26.42;;;;;;;0.70;61.74;99294.91;10430894;28;20048;-66
2022/12/11 16:42:40;;;;;;;49.35;26.95;;;;;;;0.66;61.93;99294.16;10426740;28;20059;-65
2022/12/11 16:47:42;;;;;;;49.30;26.52;;;;;;;0.69;62.05;99294.06;10427448;28;20049;-66
2022/12/11 16:52:44;;;;;;;51.22;26.95;;;;;;;0.50;62.16;99293.75;10434659;28;20619;-66
2022/12/11 16:57:46;;;;;;;46.80;26.17;;;;;;;0.28;62.42;99294.44;10433780;28;20505;-66
2022/12/11 17:02:47;;;;;;;45.75;26.05;;;;;;;0.25;62.61;99292.78;10438877;28;20057;-65
2022/12/11 17:07:49;;;;;;;48.40;26.50;;;;;;;0.23;62.65;99293.72;10432766;28;20370;-66
2022/12/11 17:12:52;;;;;;;49.15;26.73;;;;;;;0.26;62.72;99293.66;10434046;28;20053;-65
2022/12/11 17:17:54;;;;;;;47.17;26.77;;;;;;;0.21;62.76;99293.78;10430611;28;20493;-65
2022/12/11 17:22:56;;;;;;;45.42;25.83;;;;;;;0.30;62.70;99297.81;10433201;28;20068;-66
2022/12/11 17:27:57;;;;;;;44.75;25.35;;;;;;;0.46;63.08;99289.59;10437500;28;20049;-65
2022/12/11 17:33:01;;;;;;;48.83;27.23;;;;;;;0.52;62.36;99294.56;10428440;28;20056;-66
2022/12/11 17:38:03;;;;;;;51.95;28.02;;;;;;;0.54;62.63;99299.69;10446185;28;20539;-66
2022/12/11 17:43:08;;;;;;;50.95;27.48;;;;;;;0.69;62.86;99294.06;10433233;28;20401;-65
2022/12/11 17:48:11;;;;;;;51.95;29.02;;;;;;;0.81;62.75;99298.00;10435047;28;20135;-65
2022/12/11 17:53:15;;;;;;;62.53;33.50;;;;;;;0.82;62.78;99294.53;10429826;28;20048;-65
2022/12/11 17:58:20;;;;;;;55.20;31.90;;;;;;;0.87;62.74;99296.06;10430386;28;20048;-65
2022/12/11 18:03:24;;;;;;;54.78;31.35;;;;;;;0.92;62.78;99289.06;10430943;28;20539;-66
2022/12/11 18:08:28;;;;;;;57.15;30.08;;;;;;;0.94;62.66;99289.84;10430889;28;20056;-65
2022/12/11 18:13:30;;;;;;;49.10;28.40;;;;;;;0.93;62.69;99293.31;10432183;28;20123;-60
2022/12/11 18:18:33;;;;;;;53.08;28.48;;;;;;;0.91;62.58;99296.84;10430833;28;20951;-60
2022/12/11 18:23:35;;;;;;;46.80;27.48;;;;;;;0.63;63.10;99294.25;10430834;28;20060;-60
2022/12/11 18:28:37;;;;;;;48.70;25.42;;;;;;;0.53;63.50;99301.41;10426627;28;20053;-61
2022/12/11 18:33:40;;;;;;;47.22;26.27;;;;;;;0.47;63.57;99296.44;10422428;28;20552;-61
2022/12/11 18:38:43;;;;;;;48.15;26.55;;;;;;;0.58;63.48;99295.28;10427194;28;20041;-61
2022/12/11 18:43:44;;;;;;;53.45;27.60;;;;;;;0.61;63.16;99290.88;10428033;28;20049;-60
2022/12/11 18:48:48;;;;;;;44.17;25.73;;;;;;;0.42;63.48;99289.75;10428244;28;20053;-61
2022/12/11 18:53:58;;;;;;;;;;;;;;;0.16;64.18;99290.47;10432617;28;20053;-61
2022/12/11 18:59:02;;;;;;;48.53;25.67;;;;;;;0.30;63.87;99295.25;10428406;28;19924;-61
2022/12/11 19:04:07;;;;;;;48.08;26.52;;;;;;;0.47;63.77;99298.16;10433655;28;20129;-61
2022/12/11 19:09:12;;;;;;;48.92;27.02;;;;;;;0.58;63.36;99292.69;10423852;28;20650;-61
2022/12/11 19:14:14;;;;;;;53.55;29.65;;;;;;;0.51;63.30;99295.47;10429325;28;20855;-61
2022/12/11 19:19:18;;;;;;;50.55;28.45;;;;;;;0.44;63.49;99287.97;10428800;28;20045;-61
2022/12/11 19:24:23;;;;;;;56.22;29.73;;;;;;;0.37;63.76;99283.88;10425498;28;20064;-61
2022/12/11 19:29:32;;;;;;;53.75;28.98;;;;;;;0.45;63.72;99284.50;10429213;28;20048;-60
2022/12/11 19:34:34;;;;;;;54.75;28.90;;;;;;;0.56;63.84;99284.19;10425784;28;20311;-60
2022/12/11 19:39:39;;;;;;;57.13;30.17;;;;;;;0.55;63.96;99285.91;10443342;28;20052;-61
2022/12/11 19:44:42;;;;;;;55.20;30.63;;;;;;;0.46;64.15;99296.50;10432832;28;20052;-61
2022/12/11 19:49:44;;;;;;;62.75;32.47;;;;;;;0.42;64.19;99297.47;10427979;28;20052;-60
2022/12/11 19:54:46;;;;;;;54.17;29.48;;;;;;;0.46;64.14;99294.72;10426737;28;20060;-60
2022/12/11 19:59:49;;;;;;;60.28;31.67;;;;;;;0.54;63.90;99294.53;10424369;28;20721;-60
2022/12/11 20:04:58;;;;;;;56.50;31.83;;;;;;;0.56;63.81;99295.34;10426209;28;20055;-60
2022/12/11 20:09:59;;;;;;;57.83;30.95;;;;;;;0.57;63.74;99289.28;10434214;28;20255;-61
2022/12/11 20:15:03;;;;;;;59.22;31.05;;;;;;;0.43;63.90;99279.41;10426777;28;20387;-60
2022/12/11 20:20:06;;;;;;;64.35;32.17;;;;;;;0.36;63.78;99284.78;10425931;28;20059;-61
2022/12/11 20:25:08;;;;;;;60.63;32.10;;;;;;;0.27;64.04;99280.75;10427945;28;20049;-61
2022/12/11 20:30:11;;;;;;;67.03;32.70;;;;;;;0.18;64.30;99275.03;10425073;28;20326;-60
2022/12/11 20:35:12;;;;;;;64.20;32.05;;;;;;;0.02;64.22;99284.03;10425760;28;20052;-60
2022/12/11 20:40:15;;;;;;;68.55;33.05;;;;;;;-0.44;64.85;99290.41;10431277;28;20495;-60
2022/12/11 20:45:17;;;;;;;65.75;33.53;;;;;;;-0.45;65.25;99296.41;10425232;28;20059;-60
2022/12/11 20:50:19;;;;;;;62.28;32.85;;;;;;;-0.20;64.99;99295.78;10427422;28;20045;-61
2022/12/11 20:55:20;;;;;;;67.90;32.45;;;;;;;-0.17;64.90;99295.69;10425618;28;20048;-60
2022/12/11 21:00:22;;;;;;;60.83;31.30;;;;;;;-0.03;65.03;99302.16;10425184;28;20065;-60
2022/12/11 21:05:24;;;;;;;64.65;32.00;;;;;;;0.15;64.65;99295.66;10425239;28;20409;-60
2022/12/11 21:10:25;;;;;;;67.65;33.05;;;;;;;0.27;64.58;99298.75;10425456;28;20060;-60
2022/12/11 21:15:27;;;;;;;66.47;31.92;;;;;;;0.39;64.26;99294.97;10426164;28;20060;-60
2022/12/11 21:20:29;;;;;;;63.08;32.03;;;;;;;0.42;63.91;99290.56;10429507;28;20135;-60
2022/12/11 21:25:30;;;;;;;58.75;29.67;;;;;;;0.52;64.17;99298.88;10428154;28;20056;-60
2022/12/11 21:30:32;;;;;;;58.80;31.73;;;;;;;0.44;64.14;99299.06;10426131;28;20140;-60
2022/12/11 21:35:34;;;;;;;64.50;34.00;;;;;;;0.44;64.25;99301.66;10427494;28;20710;-61
2022/12/11 21:40:35;;;;;;;62.92;33.67;;;;;;;0.48;64.16;99300.69;10439437;28;20390;-60
2022/12/11 21:45:37;;;;;;;60.22;31.42;;;;;;;0.43;63.95;99299.13;10432801;28;20052;-60
2022/12/11 21:51:11;;;;;;;64.35;32.58;;;;;;;0.34;64.08;99302.00;10448565;28;20417;-60
2022/12/11 21:56:19;;;;;;;60.85;30.75;;;;;;;0.29;64.24;99298.69;10431824;28;20045;-60
2022/12/11 22:01:29;;;;;;;54.70;30.25;;;;;;;0.35;64.29;99304.50;10432928;28;20088;-61
2022/12/11 22:06:31;;;;;;;56.75;29.65;;;;;;;0.41;63.98;99306.06;10438535;28;20493;-61
2022/12/11 22:11:34;;;;;;;59.10;31.65;;;;;;;0.42;64.14;99306.00;10431662;28;20577;-61
2022/12/11 22:16:35;;;;;;;59.88;30.40;;;;;;;0.50;64.02;99308.38;10431889;28;20301;-62
2022/12/11 22:21:37;;;;;;;58.83;30.38;;;;;;;0.54;63.73;99309.97;10429669;28;20339;-61
2022/12/11 22:26:39;;;;;;;61.25;30.85;;;;;;;0.62;63.60;99313.16;10432540;28;20159;-61
2022/12/11 22:31:40;;;;;;;59.55;31.42;;;;;;;0.69;63.69;99324.13;10431348;28;20048;-61
2022/12/11 22:36:42;;;;;;;55.97;30.77;;;;;;;0.72;63.73;99314.56;10454877;28;20048;-61
2022/12/11 22:41:44;;;;;;;58.00;30.73;;;;;;;0.71;63.52;99317.19;10429029;28;20171;-61
2022/12/11 22:46:46;;;;;;;62.22;30.98;;;;;;;0.68;63.58;99317.28;10432039;28;20511;-61
2022/12/11 22:51:51;;;;;;;65.03;32.35;;;;;;;0.65;63.64;99323.34;10436692;28;20524;-60
2022/12/11 22:56:52;;;;;;;66.50;32.70;;;;;;;0.57;63.66;99320.16;10429899;28;20957;-61
2022/12/11 23:01:54;;;;;;;65.93;32.90;;;;;;;0.53;64.06;99313.41;10429871;28;20056;-61
2022/12/11 23:06:56;;;;;;;59.42;30.77;;;;;;;0.59;64.05;99313.22;10454218;28;20044;-61
2022/12/11 23:11:57;;;;;;;66.82;32.47;;;;;;;0.65;63.92;99313.06;10433426;28;20071;-61
2022/12/11 23:16:59;;;;;;;64.80;31.92;;;;;;;0.68;63.97;99312.97;10428474;28;20059;-61
2022/12/11 23:22:01;;;;;;;64.10;32.35;;;;;;;0.69;63.82;99314.66;10452324;28;20223;-61